Time;durP1;ratioP1;P1;durP2;ratioP2;P2;SDS_P1;SDS_P2;PMS_P1;PMS_P2;Temp;Humidity;BMP_temperature;BMP_pressure;BME280_temperature;BME280_humidity;BME280_pressure;Samples;Min_cycle;Max_cycle;Signal;HPM_P1;HPM_P2
2020/12/21 00:01:00;;;;;;;22.40;3.88;;;7.60;91.60;;;;;;5051020;28;20093;-79
2020/12/21 00:03:25;;;;;;;21.45;2.95;;;7.60;91.90;;;;;;5051151;28;20651;-80
2020/12/21 00:05:51;;;;;;;8.93;2.70;;;7.60;92.00;;;;;;5042185;28;20120;-80
2020/12/21 00:08:17;;;;;;;14.73;3.25;;;7.70;92.00;;;;;;5053325;28;20021;-80
2020/12/21 00:10:42;;;;;;;13.85;2.42;;;7.70;91.90;;;;;;5060272;28;20066;-80
2020/12/21 00:13:08;;;;;;;16.65;2.15;;;7.80;92.20;;;;;;5055175;28;20029;-81
2020/12/21 00:15:33;;;;;;;18.83;2.88;;;7.70;92.00;;;;;;5053368;28;20038;-79
2020/12/21 00:17:59;;;;;;;13.70;2.58;;;7.80;92.30;;;;;;5053675;28;20036;-80
2020/12/21 00:20:24;;;;;;;15.25;2.42;;;7.80;92.20;;;;;;5060933;28;20064;-80
2020/12/21 00:22:50;;;;;;;14.43;2.72;;;7.80;92.10;;;;;;5059406;28;20032;-81
2020/12/21 00:25:16;;;;;;;30.60;2.78;;;7.80;92.10;;;;;;5057066;28;20006;-80
2020/12/21 00:27:41;;;;;;;17.50;2.92;;;7.90;92.20;;;;;;5046789;28;20494;-80
2020/12/21 00:30:07;;;;;;;18.88;2.50;;;7.90;92.20;;;;;;5048634;28;20065;-80
2020/12/21 00:32:33;;;;;;;17.00;2.50;;;7.80;92.40;;;;;;5049444;28;20030;-80
2020/12/21 00:34:59;;;;;;;16.98;2.30;;;7.90;92.50;;;;;;5047551;28;20033;-80
2020/12/21 00:37:25;;;;;;;13.02;2.15;;;7.90;92.50;;;;;;5042952;28;20017;-80
2020/12/21 00:39:50;;;;;;;15.30;2.47;;;7.90;92.30;;;;;;5045843;28;20029;-80
2020/12/21 00:42:16;;;;;;;19.10;3.25;;;7.90;92.50;;;;;;5059805;28;20092;-80
2020/12/21 00:44:42;;;;;;;13.13;2.30;;;7.90;92.50;;;;;;5046705;28;20030;-80
2020/12/21 00:47:07;;;;;;;15.20;3.67;;;7.80;92.70;;;;;;5060811;28;20022;-80
2020/12/21 00:49:33;;;;;;;21.08;2.72;;;7.90;92.60;;;;;;5070343;28;20028;-82
2020/12/21 00:51:58;;;;;;;15.20;2.67;;;7.90;92.60;;;;;;5056522;28;20017;-81
2020/12/21 00:54:24;;;;;;;25.40;2.80;;;7.90;92.60;;;;;;5049530;28;20048;-81
2020/12/21 00:56:50;;;;;;;18.80;3.05;;;7.90;92.70;;;;;;5070372;28;20037;-81
2020/12/21 00:59:15;;;;;;;11.75;3.03;;;7.80;92.50;;;;;;5054247;28;20037;-80
2020/12/21 01:01:41;;;;;;;18.17;3.08;;;7.80;92.50;;;;;;5056744;28;20028;-80
2020/12/21 01:04:06;;;;;;;16.83;2.80;;;7.90;92.60;;;;;;5052790;28;20109;-81
2020/12/21 01:06:33;;;;;;;13.10;2.22;;;7.90;92.60;;;;;;5045409;28;20025;-80
2020/12/21 01:08:59;;;;;;;15.73;2.70;;;7.90;92.60;;;;;;5062752;28;20022;-80
2020/12/21 01:11:29;;;;;;;20.27;2.75;;;7.90;92.60;;;;;;5057311;28;20035;-80
2020/12/21 01:13:56;;;;;;;18.92;2.80;;;7.90;92.70;;;;;;5046137;28;20029;-80
2020/12/21 01:16:22;;;;;;;13.32;3.15;;;7.90;92.60;;;;;;5040958;28;20415;-80
2020/12/21 01:18:49;;;;;;;20.80;4.30;;;7.90;92.60;;;;;;5057947;28;20022;-80
2020/12/21 01:21:26;;;;;;;18.55;2.58;;;7.90;92.60;;;;;;5049523;28;20164;-79
2020/12/21 01:23:52;;;;;;;26.02;3.28;;;7.90;92.70;;;;;;5068657;28;20171;-80
2020/12/21 01:26:18;;;;;;;17.20;2.50;;;7.90;92.80;;;;;;5043740;28;20021;-80
2020/12/21 01:28:44;;;;;;;12.02;2.70;;;7.90;92.80;;;;;;5044382;28;20041;-80
2020/12/21 01:31:09;;;;;;;15.02;2.28;;;7.90;92.90;;;;;;5068348;28;20063;-80
2020/12/21 01:33:35;;;;;;;15.05;2.55;;;7.90;93.20;;;;;;5040637;28;20032;-79
2020/12/21 01:36:01;;;;;;;12.07;2.72;;;7.90;92.90;;;;;;5041975;28;20033;-80
2020/12/21 01:38:26;;;;;;;15.77;2.42;;;7.90;93.00;;;;;;5039344;28;20030;-80
2020/12/21 01:40:52;;;;;;;10.07;2.33;;;8.00;93.00;;;;;;5054197;28;20041;-80
2020/12/21 01:43:17;;;;;;;13.45;2.40;;;7.90;93.00;;;;;;5047425;28;20036;-81
2020/12/21 01:45:43;;;;;;;18.60;2.70;;;7.90;93.00;;;;;;5054757;28;20029;-81
2020/12/21 01:48:09;;;;;;;22.17;3.42;;;7.90;93.10;;;;;;5044751;28;20493;-79
2020/12/21 01:50:35;;;;;;;12.73;1.98;;;7.90;93.10;;;;;;5042269;28;20033;-79
2020/12/21 01:53:01;;;;;;;18.77;2.60;;;7.90;93.20;;;;;;5042829;28;20026;-79
2020/12/21 01:55:29;;;;;;;14.98;2.38;;;7.90;93.40;;;;;;5044510;28;20064;-79
2020/12/21 01:57:55;;;;;;;21.75;3.20;;;7.90;93.60;;;;;;5044061;28;20101;-79
2020/12/21 02:00:21;;;;;;;;;;;8.00;93.40;;;;;;5046494;28;20478;-79
2020/12/21 02:02:46;;;;;;;11.98;2.45;;;8.00;93.40;;;;;;5071097;28;19905;-80
2020/12/21 02:05:12;;;;;;;12.57;2.03;;;8.00;93.40;;;;;;5035879;28;20030;-79
2020/12/21 02:07:38;;;;;;;17.48;2.63;;;8.00;93.40;;;;;;5040336;28;20078;-80
2020/12/21 02:10:04;;;;;;;12.65;2.30;;;8.00;93.40;;;;;;5054897;28;20036;-80
2020/12/21 02:12:29;;;;;;;10.45;2.63;;;8.00;93.50;;;;;;5053027;28;20113;-80
2020/12/21 02:14:55;;;;;;;14.30;2.25;;;8.00;93.50;;;;;;5050328;28;20038;-81
2020/12/21 02:17:21;;;;;;;17.17;2.58;;;8.00;93.60;;;;;;5047234;28;20021;-80
2020/12/21 02:19:46;;;;;;;11.85;2.55;;;8.00;93.60;;;;;;5042777;28;20025;-80
2020/12/21 02:22:12;;;;;;;21.90;3.00;;;8.10;93.50;;;;;;5041748;28;20033;-80
2020/12/21 02:24:39;;;;;;;13.23;2.10;;;8.00;93.40;;;;;;5043856;28;20044;-81
2020/12/21 02:27:05;;;;;;;18.48;3.10;;;8.10;93.50;;;;;;5043019;28;20163;-80
2020/12/21 02:29:30;;;;;;;19.38;3.13;;;8.10;93.50;;;;;;5044222;28;20021;-81
2020/12/21 02:31:56;;;;;;;13.63;2.55;;;8.10;93.70;;;;;;5045671;28;20033;-80
2020/12/21 02:34:24;;;;;;;16.25;2.88;;;8.00;93.80;;;;;;5040693;28;20041;-80
2020/12/21 02:36:50;;;;;;;17.48;3.38;;;8.10;93.50;;;;;;5055060;28;20037;-81
2020/12/21 02:39:16;;;;;;;6.75;2.13;;;8.00;93.60;;;;;;5048443;28;20029;-82
2020/12/21 02:41:41;;;;;;;17.70;2.58;;;8.10;93.60;;;;;;5053184;28;20034;-81
2020/12/21 02:44:07;;;;;;;17.80;2.70;;;8.10;93.50;;;;;;5054723;28;20534;-82
2020/12/21 02:46:33;;;;;;;16.88;3.05;;;8.10;93.80;;;;;;5047621;28;20029;-81
2020/12/21 02:48:59;;;;;;;16.63;2.25;;;8.10;93.60;;;;;;5049581;28;20013;-82
2020/12/21 02:51:24;;;;;;;18.27;2.60;;;8.10;93.60;;;;;;5048360;28;20033;-82
2020/12/21 02:53:50;;;;;;;16.80;3.08;;;8.10;93.60;;;;;;5039270;28;20017;-81
2020/12/21 02:56:16;;;;;;;19.33;2.60;;;8.00;93.70;;;;;;5043631;28;20045;-81
2020/12/21 02:58:42;;;;;;;17.60;2.10;;;8.10;93.70;;;;;;5071793;28;20018;-82
2020/12/21 03:01:08;;;;;;;16.38;4.35;;;8.10;93.80;;;;;;5042443;28;20026;-81
2020/12/21 03:03:33;;;;;;;15.07;2.50;;;8.20;93.70;;;;;;5046923;28;20038;-81
2020/12/21 03:05:59;;;;;;;18.75;2.13;;;8.10;93.70;;;;;;5050451;28;20018;-82
2020/12/21 03:08:24;;;;;;;15.68;2.45;;;8.20;93.80;;;;;;5049216;28;20034;-81
2020/12/21 03:10:50;;;;;;;13.32;2.42;;;8.20;94.00;;;;;;5040163;28;20017;-81
2020/12/21 03:13:16;;;;;;;14.65;2.10;;;8.30;93.80;;;;;;5043048;28;20030;-81
2020/12/21 03:15:41;;;;;;;14.23;2.40;;;8.20;93.70;;;;;;5040949;28;20034;-81
2020/12/21 03:18:07;;;;;;;10.10;2.05;;;8.30;93.70;;;;;;5051465;28;20032;-81
2020/12/21 03:20:33;;;;;;;12.30;2.42;;;8.30;93.60;;;;;;5059661;28;20029;-82
2020/12/21 03:22:59;;;;;;;15.73;3.03;;;8.30;93.70;;;;;;5060618;28;20030;-81
2020/12/21 03:25:24;;;;;;;11.85;2.30;;;8.30;93.60;;;;;;5046833;28;20029;-81
2020/12/21 03:27:50;;;;;;;8.93;1.83;;;8.40;93.60;;;;;;5038199;28;20029;-81
2020/12/21 03:30:16;;;;;;;11.20;2.00;;;8.40;93.60;;;;;;5039482;28;20025;-81
2020/12/21 03:32:42;;;;;;;12.02;1.90;;;8.40;93.50;;;;;;5050839;28;20040;-81
2020/12/21 03:35:08;;;;;;;9.35;2.50;;;8.40;93.50;;;;;;5068736;28;20032;-81
2020/12/21 03:37:34;;;;;;;8.13;2.10;;;8.40;93.70;;;;;;5059350;28;20110;-82
2020/12/21 03:40:02;;;;;;;6.03;1.63;;;8.40;93.70;;;;;;5051720;28;20442;-81
2020/12/21 03:42:27;;;;;;;14.18;2.10;;;8.40;93.70;;;;;;5070826;28;20033;-80
2020/12/21 03:44:53;;;;;;;10.50;2.00;;;8.40;93.80;;;;;;5070917;28;20013;-81
2020/12/21 03:47:19;;;;;;;11.25;1.83;;;8.40;93.90;;;;;;5057287;28;20101;-82
2020/12/21 03:49:45;;;;;;;12.20;1.80;;;8.50;93.90;;;;;;5050941;28;20041;-81
2020/12/21 03:52:10;;;;;;;7.57;1.88;;;8.50;93.80;;;;;;5050577;28;20026;-81
2020/12/21 03:54:36;;;;;;;10.85;2.20;;;8.60;94.10;;;;;;5038912;28;20037;-81
2020/12/21 03:57:02;;;;;;;11.38;1.83;;;8.60;93.80;;;;;;5050392;28;20064;-81
2020/12/21 03:59:27;;;;;;;5.43;1.73;;;8.60;93.90;;;;;;5052245;28;20032;-81
2020/12/21 04:01:53;;;;;;;9.00;1.70;;;8.60;93.90;;;;;;5050659;28;20029;-81
2020/12/21 04:04:19;;;;;;;7.63;1.88;;;8.70;93.90;;;;;;5049848;28;20037;-81
2020/12/21 04:06:44;;;;;;;9.05;1.88;;;8.70;93.80;;;;;;5048918;28;20035;-81
2020/12/21 04:09:10;;;;;;;5.80;1.80;;;8.70;93.80;;;;;;5050182;28;20027;-81
2020/12/21 04:11:36;;;;;;;10.20;2.33;;;8.70;93.70;;;;;;5067760;28;20120;-81
2020/12/21 04:14:02;;;;;;;2.72;1.27;;;8.80;93.80;;;;;;5049339;28;20018;-81
2020/12/21 04:16:27;;;;;;;6.53;2.05;;;8.80;93.70;;;;;;5052632;28;20084;-82
2020/12/21 04:18:53;;;;;;;7.05;1.50;;;8.90;93.80;;;;;;5055737;28;20033;-82
2020/12/21 04:21:18;;;;;;;6.97;1.80;;;8.90;93.80;;;;;;5051454;28;20057;-81
2020/12/21 04:23:44;;;;;;;8.30;1.77;;;8.80;93.90;;;;;;5044576;28;20041;-82
2020/12/21 04:26:10;;;;;;;5.93;1.55;;;8.90;93.90;;;;;;5056266;28;20408;-82
2020/12/21 04:28:36;;;;;;;5.82;1.50;;;8.80;94.00;;;;;;5043498;28;20034;-81
2020/12/21 04:31:03;;;;;;;7.32;1.40;;;8.90;94.10;;;;;;5049329;28;20057;-81
2020/12/21 04:33:29;;;;;;;6.50;2.00;;;8.90;94.20;;;;;;5052943;28;20026;-82
2020/12/21 04:35:55;;;;;;;7.35;1.60;;;8.90;94.20;;;;;;5052800;28;20052;-82
2020/12/21 04:38:21;;;;;;;7.10;2.20;;;8.90;94.10;;;;;;5053877;28;20116;-82
2020/12/21 04:40:55;;;;;;;10.60;1.50;;;9.00;94.10;;;;;;5052465;28;20105;-82
2020/12/21 04:43:24;;;;;;;3.10;1.33;;;9.00;94.20;;;;;;5061613;28;20045;-83
2020/12/21 04:45:53;;;;;;;5.35;1.42;;;9.00;94.10;;;;;;5063051;28;20049;-83
2020/12/21 04:48:22;;;;;;;5.88;1.20;;;9.10;94.00;;;;;;5053813;28;20026;-82
2020/12/21 04:50:52;;;;;;;3.92;1.38;;;9.10;94.10;;;;;;5051047;28;20021;-83
2020/12/21 04:53:19;;;;;;;8.27;1.55;;;9.10;94.10;;;;;;5050224;28;20013;-84
2020/12/21 04:55:45;;;;;;;4.65;1.42;;;9.10;94.20;;;;;;5072261;28;20103;-84
2020/12/21 04:58:11;;;;;;;6.57;1.08;;;9.10;94.20;;;;;;5053290;28;20088;-84
2020/12/21 05:00:37;;;;;;;4.68;0.80;;;9.10;94.30;;;;;;5059119;28;20056;-84
2020/12/21 05:03:04;;;;;;;3.95;1.40;;;9.20;94.20;;;;;;5051409;28;20022;-83
2020/12/21 05:05:41;;;;;;;5.03;0.98;;;9.10;94.30;;;;;;5047581;28;20029;-83
2020/12/21 05:08:34;;;;;;;3.83;1.05;;;9.20;94.30;;;;;;5039347;28;20030;-84
2020/12/21 05:11:02;;;;;;;3.88;0.93;;;9.20;94.30;;;;;;5036987;28;20053;-83
2020/12/21 05:13:29;;;;;;;3.17;0.90;;;9.20;94.20;;;;;;5059657;28;20051;-84
2020/12/21 05:15:57;;;;;;;2.70;0.93;;;9.20;94.30;;;;;;5053084;28;20041;-84
2020/12/21 05:18:36;;;;;;;1.45;0.70;;;9.20;94.30;;;;;;5048538;28;20018;-83
2020/12/21 05:21:07;;;;;;;4.07;1.17;;;9.20;94.30;;;;;;5055182;28;20049;-84
2020/12/21 05:23:33;;;;;;;2.67;1.15;;;9.30;94.30;;;;;;5063305;28;20022;-83
2020/12/21 05:26:09;;;;;;;;;;;9.30;94.30;;;;;;5052093;28;20026;-83
2020/12/21 05:28:37;;;;;;;2.40;0.77;;;9.30;94.40;;;;;;5051666;28;19941;-84
2020/12/21 05:31:08;;;;;;;3.15;0.80;;;9.30;94.40;;;;;;5053748;28;20032;-83
2020/12/21 05:33:39;;;;;;;1.23;0.80;;;9.30;94.40;;;;;;5052966;28;20017;-84
2020/12/21 05:36:10;;;;;;;2.72;0.90;;;9.30;94.50;;;;;;5048813;28;20073;-84
2020/12/21 05:38:37;;;;;;;3.13;1.10;;;9.40;94.50;;;;;;5062070;28;20017;-84
2020/12/21 05:41:18;;;;;;;4.28;1.25;;;9.40;94.50;;;;;;5058217;28;20091;-84
2020/12/21 05:43:49;;;;;;;2.78;0.93;;;9.40;94.60;;;;;;5066078;28;20029;-84
2020/12/21 05:46:17;;;;;;;7.10;0.90;;;9.40;94.50;;;;;;5062370;28;20016;-84
2020/12/21 05:48:54;;;;;;;5.25;0.90;;;9.40;94.50;;;;;;5070630;28;20033;-85
2020/12/21 05:51:26;;;;;;;4.78;1.08;;;9.50;94.50;;;;;;5053223;28;20108;-84
2020/12/21 05:53:54;;;;;;;6.55;1.17;;;9.50;94.50;;;;;;5045952;28;20056;-84
2020/12/21 05:56:21;;;;;;;3.83;1.02;;;9.50;94.60;;;;;;5061162;28;20017;-85
2020/12/21 05:58:47;;;;;;;3.55;1.10;;;9.50;94.50;;;;;;5074588;28;20043;-85
2020/12/21 06:01:14;;;;;;;2.60;0.90;;;9.50;94.50;;;;;;5058682;28;20013;-85
2020/12/21 06:03:42;;;;;;;3.78;0.90;;;9.60;94.50;;;;;;5072300;28;20033;-85
2020/12/21 06:06:11;;;;;;;1.58;0.80;;;9.60;94.40;;;;;;5058209;28;20089;-86
2020/12/21 06:08:37;;;;;;;5.63;0.75;;;9.60;94.40;;;;;;5058911;28;20037;-85
2020/12/21 06:11:16;;;;;;;4.95;1.08;;;9.60;94.50;;;;;;5057748;28;20026;-85
2020/12/21 06:13:48;;;;;;;5.10;0.80;;;9.60;94.50;;;;;;5057563;28;20414;-85
2020/12/21 06:16:16;;;;;;;4.75;0.88;;;9.70;94.50;;;;;;5039234;28;20038;-85
2020/12/21 06:18:42;;;;;;;3.85;0.70;;;9.70;94.50;;;;;;5045530;28;20017;-85
2020/12/21 06:21:09;;;;;;;1.20;0.70;;;9.70;94.50;;;;;;5052757;28;20032;-86
2020/12/21 06:23:39;;;;;;;1.60;0.80;;;9.80;94.50;;;;;;5054211;28;20032;-85
2020/12/21 06:26:17;;;;;;;1.27;0.80;;;9.80;94.60;;;;;;5055289;28;20029;-86
2020/12/21 06:28:43;;;;;;;3.95;0.70;;;9.80;94.60;;;;;;5052739;28;20025;-86
2020/12/21 06:31:17;;;;;;;1.25;0.73;;;9.80;94.60;;;;;;5055588;28;20052;-85
2020/12/21 06:33:44;;;;;;;1.52;0.60;;;9.80;94.70;;;;;;5063724;28;20024;-87
2020/12/21 06:36:09;;;;;;;2.83;0.70;;;9.80;94.60;;;;;;5056512;28;20037;-86
2020/12/21 06:38:46;;;;;;;1.27;0.82;;;9.90;94.60;;;;;;5042792;28;20010;-87
2020/12/21 06:41:21;;;;;;;;;;;9.90;94.70;;;;;;5057091;28;20112;-86
2020/12/21 06:44:07;;;;;;;1.13;0.60;;;9.90;94.70;;;;;;5064622;28;19908;-86
2020/12/21 06:46:36;;;;;;;1.00;0.70;;;9.90;94.70;;;;;;5076338;28;20037;-86
2020/12/21 06:49:06;;;;;;;1.88;0.70;;;10.00;94.60;;;;;;5067429;28;20021;-86
2020/12/21 06:51:32;;;;;;;2.03;0.70;;;10.00;94.60;;;;;;5055245;28;20048;-86
2020/12/21 06:54:03;;;;;;;4.05;1.00;;;10.00;94.60;;;;;;5058269;28;20026;-86
2020/12/21 06:56:29;;;;;;;4.30;0.70;;;10.00;94.60;;;;;;5064024;28;20156;-86
2020/12/21 06:58:55;;;;;;;;;;;10.10;94.60;;;;;;5055438;28;20009;-86
2020/12/21 07:01:24;;;;;;;2.33;0.73;;;10.10;94.60;;;;;;5063266;28;19960;-86
2020/12/21 07:03:52;;;;;;;1.50;0.80;;;10.10;94.50;;;;;;5070272;28;20059;-86
2020/12/21 07:06:18;;;;;;;0.60;0.60;;;10.10;94.60;;;;;;5064550;28;20085;-85
2020/12/21 07:08:45;;;;;;;5.78;1.10;;;10.20;94.50;;;;;;5056418;28;20009;-86
2020/12/21 07:11:19;;;;;;;2.83;1.00;;;10.20;94.60;;;;;;5069272;28;20040;-86
2020/12/21 07:13:46;;;;;;;1.45;0.80;;;10.20;94.60;;;;;;5053228;28;20486;-85
2020/12/21 07:16:13;;;;;;;0.90;0.75;;;10.30;94.70;;;;;;5053666;28;20029;-85
2020/12/21 07:18:39;;;;;;;3.90;0.90;;;10.30;94.50;;;;;;5050832;28;20028;-86
2020/12/21 07:21:18;;;;;;;2.30;1.25;;;10.40;94.60;;;;;;5071159;28;20029;-86
2020/12/21 07:23:45;;;;;;;3.33;0.80;;;10.40;94.60;;;;;;5063422;28;20026;-85
2020/12/21 07:26:13;;;;;;;4.15;1.30;;;10.50;94.70;;;;;;5069371;28;20030;-86
2020/12/21 07:28:39;;;;;;;2.33;1.48;;;10.60;94.50;;;;;;5048833;28;20116;-85
2020/12/21 07:31:12;;;;;;;1.42;1.20;;;10.60;94.40;;;;;;5052054;28;20037;-86
2020/12/21 07:34:07;;;;;;;2.63;1.08;;;10.60;94.50;;;;;;5058551;28;20037;-84
2020/12/21 07:36:39;;;;;;;2.45;1.42;;;10.60;94.40;;;;;;5033089;28;20042;-84
2020/12/21 07:39:10;;;;;;;1.50;1.00;;;10.70;94.30;;;;;;5045180;28;20021;-84
2020/12/21 07:41:38;;;;;;;6.30;1.30;;;10.70;94.50;;;;;;5046459;28;20026;-84
2020/12/21 07:44:12;;;;;;;3.22;1.20;;;10.70;94.50;;;;;;5046846;28;20025;-85
2020/12/21 07:46:56;;;;;;;4.95;1.40;;;10.80;94.30;;;;;;5059079;28;20029;-84
2020/12/21 07:49:23;;;;;;;2.05;1.02;;;10.80;94.60;;;;;;5041999;28;20076;-84
2020/12/21 08:02:10;;;;;;;4.20;2.20;;;10.90;94.10;;;;;;6177344;22;20012;-86
2020/12/21 08:27:54;;;;;;;6.15;3.03;;;11.30;94.70;;;;;;6070200;22;20561;-85
2020/12/21 08:30:24;;;;;;;;;;;11.30;94.60;;;;;;5624367;22;20105;-87
2020/12/21 08:45:48;;;;;;;5.95;3.58;;;11.60;94.70;;;;;;5648156;22;20040;-88
2020/12/21 08:56:09;;;;;;;6.25;3.58;;;11.80;94.70;;;;;;5700699;22;20040;-87
2020/12/21 09:03:46;;;;;;;8.77;3.22;;;11.90;94.40;;;;;;5960589;22;20052;-88
2020/12/21 09:06:23;;;;;;;5.75;3.00;;;11.90;94.40;;;;;;5099781;28;20024;-88
2020/12/21 09:08:50;;;;;;;4.85;2.53;;;12.00;94.40;;;;;;5736675;22;20048;-88
2020/12/21 09:29:25;;;;;;;4.30;1.60;;;12.30;94.00;;;;;;5838207;22;20032;-84
2020/12/21 09:50:09;;;;;;;1.55;0.60;;;12.50;93.80;;;;;;5169287;22;20057;-87
2020/12/21 09:52:35;;;;;;;1.77;0.60;;;12.50;93.80;;;;;;5338575;22;21100;-86
2020/12/21 09:55:01;;;;;;;;;;;12.50;93.80;;;;;;5076919;28;20044;-86
2020/12/21 09:57:27;;;;;;;1.00;0.82;;;12.50;94.00;;;;;;5076667;28;19927;-88
2020/12/21 09:59:52;;;;;;;;;;;12.50;93.90;;;;;;5062295;28;20096;-86
2020/12/21 10:02:18;;;;;;;2.45;1.00;;;12.50;94.00;;;;;;5076745;28;19911;-84
2020/12/21 10:04:44;;;;;;;;;;;12.50;94.10;;;;;;5077503;28;20051;-87
2020/12/21 10:07:10;;;;;;;3.03;0.90;;;12.50;94.50;;;;;;5073465;28;19911;-86
2020/12/21 10:09:36;;;;;;;1.15;0.80;;;12.60;94.10;;;;;;5072194;28;20096;-87
2020/12/21 10:12:01;;;;;;;;;;;12.60;94.40;;;;;;5167778;22;20020;-80
2020/12/21 10:16:55;;;;;;;1.83;1.05;;;12.60;94.10;;;;;;5128316;22;20053;-86
2020/12/21 10:19:22;;;;;;;1.40;0.82;;;12.60;93.90;;;;;;5091729;28;20004;-86
2020/12/21 10:21:48;;;;;;;1.95;0.77;;;12.70;94.00;;;;;;5088595;28;20080;-86
2020/12/21 10:24:13;;;;;;;;;;;12.80;94.00;;;;;;5093625;28;20047;-86
2020/12/21 10:26:40;;;;;;;1.23;0.50;;;12.80;93.90;;;;;;5088840;28;19964;-86
2020/12/21 10:29:06;;;;;;;0.75;0.50;;;12.80;93.90;;;;;;5176663;22;20041;-86
2020/12/21 10:31:32;;;;;;;;;;;12.80;94.00;;;;;;5093913;28;20074;-86
2020/12/21 10:33:58;;;;;;;3.10;0.88;;;12.80;94.20;;;;;;5094641;28;19915;-86
2020/12/21 10:36:24;;;;;;;1.50;0.80;;;12.80;94.00;;;;;;5092933;28;20016;-86
2020/12/21 10:38:50;;;;;;;;;;;12.80;94.10;;;;;;5087453;28;20024;-87
2020/12/21 10:41:17;;;;;;;4.43;1.00;;;12.80;94.20;;;;;;5093870;28;19911;-87
2020/12/21 10:43:43;;;;;;;2.45;0.93;;;12.70;94.10;;;;;;5095596;28;20092;-86
2020/12/21 10:46:09;;;;;;;1.15;0.85;;;12.70;94.30;;;;;;5253403;22;20058;-85
2020/12/21 10:48:35;;;;;;;;;;;12.80;94.30;;;;;;5093554;28;20001;-85
2020/12/21 10:51:02;;;;;;;1.90;0.80;;;12.80;94.40;;;;;;5093462;28;20003;-87
2020/12/21 10:53:28;;;;;;;1.95;0.93;;;12.80;94.20;;;;;;5074110;28;20505;-86
2020/12/21 10:55:54;;;;;;;;;;;12.80;94.40;;;;;;5070598;28;20034;-86
2020/12/21 10:58:20;;;;;;;1.25;0.82;;;12.90;94.40;;;;;;5073796;28;19911;-86
2020/12/21 11:00:45;;;;;;;1.95;0.88;;;12.80;94.20;;;;;;5060212;28;20052;-86
2020/12/21 11:03:11;;;;;;;3.03;0.93;;;12.90;94.40;;;;;;5063764;28;20025;-86
2020/12/21 11:05:37;;;;;;;;;;;12.80;94.20;;;;;;5136341;22;20026;-87
2020/12/21 11:08:06;;;;;;;1.58;1.00;;;12.80;94.40;;;;;;5038250;28;19909;-87
2020/12/21 11:10:33;;;;;;;1.42;1.20;;;12.80;94.40;;;;;;5038431;28;20010;-87
2020/12/21 11:12:59;;;;;;;1.23;0.90;;;12.80;94.40;;;;;;5165647;22;20052;-85
2020/12/21 11:15:25;;;;;;;;;;;12.90;94.50;;;;;;5077009;28;20041;-86
2020/12/21 11:17:52;;;;;;;3.20;1.88;;;12.90;94.60;;;;;;5074294;28;20278;-86
2020/12/21 11:20:18;;;;;;;2.05;1.30;;;12.90;94.50;;;;;;5073882;28;20048;-86
2020/12/21 11:22:44;;;;;;;4.35;1.30;;;12.90;94.60;;;;;;5064793;28;20018;-86
2020/12/21 11:25:10;;;;;;;;;;;12.80;94.50;;;;;;5416438;22;20045;-84
2020/12/21 11:27:37;;;;;;;1.10;0.90;;;12.80;94.70;;;;;;5053481;28;19893;-87
2020/12/21 11:30:04;;;;;;;1.90;0.90;;;12.80;94.60;;;;;;5053637;28;20038;-85
2020/12/21 11:32:30;;;;;;;3.72;1.23;;;12.80;94.70;;;;;;5055205;28;20009;-85
2020/12/21 11:37:31;;;;;;;2.75;1.50;;;12.90;94.80;;;;;;5636092;22;19912;-83
2020/12/21 11:50:42;;;;;;;2.10;0.98;;;12.90;94.40;;;;;;5064788;28;20059;-85
2020/12/21 11:53:08;;;;;;;1.83;1.02;;;13.00;94.40;;;;;;5059506;28;20029;-85
2020/12/21 11:55:33;;;;;;;;;;;13.00;94.30;;;;;;5065135;28;20048;-85
2020/12/21 11:57:59;;;;;;;1.48;1.02;;;13.00;94.10;;;;;;5068172;28;19904;-84
2020/12/21 12:00:25;;;;;;;;;;;13.00;94.20;;;;;;5053446;28;20027;-84
2020/12/21 12:02:51;;;;;;;0.82;0.70;;;13.00;94.10;;;;;;5070335;28;19905;-84
2020/12/21 12:05:16;;;;;;;;;;;13.00;94.10;;;;;;5072046;28;20031;-86
2020/12/21 12:07:42;;;;;;;4.60;0.90;;;13.10;94.10;;;;;;5070650;28;19904;-84
2020/12/21 12:10:08;;;;;;;1.23;0.90;;;13.10;94.30;;;;;;5073984;28;20025;-86
2020/12/21 12:12:34;;;;;;;3.72;0.90;;;13.10;94.10;;;;;;5090607;28;20017;-85
2020/12/21 12:14:59;;;;;;;;;;;13.20;94.20;;;;;;5076909;28;20041;-83
2020/12/21 12:17:25;;;;;;;1.75;1.08;;;13.20;94.10;;;;;;5068184;28;19904;-86
2020/12/21 12:19:51;;;;;;;;;;;13.20;94.10;;;;;;5079872;28;20005;-87
2020/12/21 12:22:17;;;;;;;8.18;2.70;;;13.20;94.00;;;;;;5059405;28;19909;-86
2020/12/21 12:45:30;;;;;;;3.97;1.05;;;13.50;93.60;;;;;;5661466;22;20033;-88
2020/12/21 12:47:56;;;;;;;3.17;0.70;;;13.40;93.60;;;;;;5062366;28;20009;-83
2020/12/21 12:50:21;;;;;;;;;;;13.50;93.60;;;;;;5063107;28;20002;-83
2020/12/21 12:55:13;;;;;;;3.70;2.03;;;13.50;93.80;;;;;;6175765;22;21379;-85
2020/12/21 13:28:35;;;;;;;1.00;0.90;;;13.40;94.30;;;;;;5104597;22;20056;-87
2020/12/21 13:31:01;;;;;;;;;;;13.40;94.00;;;;;;5127892;22;20049;-86
2020/12/21 13:33:27;;;;;;;3.20;0.70;;;13.40;94.20;;;;;;5082249;28;19981;-85
2020/12/21 13:35:52;;;;;;;;;;;13.40;94.20;;;;;;5055333;28;20048;-86
2020/12/21 13:38:18;;;;;;;2.80;0.90;;;13.50;94.20;;;;;;5088939;28;19911;-85
2020/12/21 13:40:44;;;;;;;;;;;13.50;94.10;;;;;;5054591;28;20021;-86
2020/12/21 13:43:10;;;;;;;8.65;3.40;;;13.50;94.20;;;;;;5078200;28;19936;-86
2020/12/21 13:45:36;;;;;;;;;;;13.50;94.40;;;;;;5045255;28;20237;-88
2020/12/21 13:48:02;;;;;;;9.23;4.32;;;13.60;94.10;;;;;;5051669;28;19928;-85
2020/12/21 13:50:30;;;;;;;;;;;13.60;94.00;;;;;;5054797;28;20018;-86
2020/12/21 13:52:56;;;;;;;3.38;1.67;;;13.60;93.80;;;;;;5089483;28;19919;-86
2020/12/21 13:55:21;;;;;;;;;;;13.70;93.90;;;;;;5054313;28;20029;-84
2020/12/21 13:57:50;;;;;;;2.72;1.38;;;13.60;93.90;;;;;;5057527;28;19939;-87
2020/12/21 14:00:16;;;;;;;4.18;1.67;;;13.60;93.90;;;;;;5056316;28;20022;-86
2020/12/21 14:02:42;;;;;;;;;;;13.60;94.10;;;;;;5047507;28;20036;-87
2020/12/21 14:05:08;;;;;;;3.70;1.65;;;13.60;93.80;;;;;;5081024;28;19995;-85
2020/12/21 14:07:34;;;;;;;2.15;1.40;;;13.50;93.70;;;;;;5091802;28;20030;-87
2020/12/21 14:10:00;;;;;;;;;;;13.50;94.00;;;;;;5059076;28;20052;-87
2020/12/21 14:12:26;;;;;;;2.50;1.30;;;13.50;94.10;;;;;;5092057;28;19893;-87
2020/12/21 14:14:52;;;;;;;;;;;13.50;94.00;;;;;;5323450;22;20050;-86
2020/12/21 14:17:18;;;;;;;2.35;1.40;;;13.50;94.10;;;;;;5041074;28;19928;-86
2020/12/21 14:19:43;;;;;;;;;;;13.50;94.00;;;;;;5055210;28;20006;-85
2020/12/21 14:22:11;;;;;;;3.13;1.08;;;13.50;94.00;;;;;;5046781;28;19912;-87
2020/12/21 14:24:37;;;;;;;3.05;1.10;;;13.50;94.00;;;;;;5033844;28;20015;-87
2020/12/21 14:27:03;;;;;;;;;;;13.50;94.10;;;;;;5100757;22;20097;-87
2020/12/21 14:29:30;;;;;;;3.00;1.70;;;13.60;94.10;;;;;;5153088;22;19905;-87
2020/12/21 14:39:42;;;;;;;2.05;1.42;;;13.50;94.00;;;;;;5866439;22;20066;-85
2020/12/21 14:42:08;;;;;;;;;;;13.50;94.00;;;;;;5057265;28;20089;-85
2020/12/21 14:44:34;;;;;;;3.00;1.33;;;13.50;94.20;;;;;;5069533;28;19909;-85
2020/12/21 14:47:00;;;;;;;;;;;13.60;94.10;;;;;;5083621;28;20030;-86
2020/12/21 14:49:26;;;;;;;2.65;1.70;;;13.60;94.20;;;;;;5080297;28;19893;-85
2020/12/21 14:51:52;;;;;;;2.85;1.98;;;13.60;94.20;;;;;;5087379;28;20055;-86
2020/12/21 14:54:18;;;;;;;5.07;2.20;;;13.60;94.20;;;;;;5067192;28;20070;-85
2020/12/21 14:56:46;;;;;;;;;;;13.60;94.20;;;;;;5074696;28;20025;-85
2020/12/21 14:59:15;;;;;;;3.00;1.80;;;13.60;94.30;;;;;;5072062;28;19908;-86
2020/12/21 15:01:41;;;;;;;2.58;2.03;;;13.60;94.00;;;;;;5074354;28;20025;-86
2020/12/21 15:04:06;;;;;;;;;;;13.60;94.30;;;;;;5073578;28;20025;-86
2020/12/21 15:06:32;;;;;;;1.40;0.85;;;13.70;94.30;;;;;;5074176;28;19905;-86
2020/12/21 15:09:00;;;;;;;6.85;1.42;;;13.60;94.30;;;;;;5067010;28;20025;-86
2020/12/21 15:11:31;;;;;;;11.25;1.70;;;13.60;94.50;;;;;;5082057;28;20037;-86
2020/12/21 15:14:00;;;;;;;9.15;1.40;;;13.60;94.60;;;;;;5058379;28;20005;-87
2020/12/21 15:16:26;;;;;;;3.08;1.70;;;13.60;94.60;;;;;;5077713;28;20089;-87
2020/12/21 15:18:52;;;;;;;;;;;13.60;94.70;;;;;;5099988;22;20057;-84
2020/12/21 15:21:18;;;;;;;2.08;0.98;;;13.50;94.80;;;;;;5276292;22;19904;-86
2020/12/21 15:23:44;;;;;;;6.50;1.73;;;13.50;94.60;;;;;;5114885;22;20029;-88
2020/12/21 15:26:10;;;;;;;;;;;13.60;94.60;;;;;;5076617;28;20116;-87
2020/12/21 15:28:35;;;;;;;5.30;1.60;;;13.60;94.60;;;;;;5080309;28;19893;-87
2020/12/21 15:31:01;;;;;;;;;;;13.50;94.50;;;;;;5133510;22;20020;-87
2020/12/21 15:46:24;;;;;;;8.07;1.50;;;13.60;94.80;;;;;;5801308;22;20033;-89
2020/12/21 15:48:50;;;;;;;1.45;1.10;;;13.60;94.90;;;;;;5040176;28;20029;-88
2020/12/21 16:14:36;;;;;;;6.55;1.30;;;13.60;95.00;;;;;;5697373;22;20079;-87
2020/12/21 16:17:05;;;;;;;8.05;2.40;;;13.50;95.10;;;;;;5078263;28;20024;-86
2020/12/21 16:19:31;;;;;;;8.85;2.13;;;13.60;95.10;;;;;;5079659;28;20009;-87
2020/12/21 16:24:32;;;;;;;7.40;1.63;;;13.60;95.00;;;;;;5519731;22;19905;-85
2020/12/21 16:32:09;;;;;;;3.28;1.50;;;13.60;95.00;;;;;;5166826;22;20040;-87
2020/12/21 16:34:35;;;;;;;;;;;13.60;94.90;;;;;;5066147;28;20103;-86
2020/12/21 17:05:29;;;;;;;1.95;1.25;;;13.50;95.00;;;;;;5291018;22;20502;-86